createdAt,value
2024-03-13T00:00:16.994Z,135.93
2024-03-13T00:05:25.692Z,218.35
2024-03-13T00:10:28.191Z,52.22
2024-03-13T00:15:30.514Z,79.53
2024-03-13T00:20:32.881Z,91.60
2024-03-13T00:25:35.543Z,106.15
2024-03-13T00:30:38.142Z,52.30
2024-03-13T00:35:40.388Z,65.75
2024-03-13T00:40:42.789Z,155.20
2024-03-13T00:45:45.604Z,220.65
2024-03-13T00:50:50.913Z,141.77
2024-03-13T00:55:53.430Z,78.65
2024-03-13T01:00:55.844Z,87.45
2024-03-13T01:05:58.209Z,52.67
2024-03-13T01:11:00.891Z,89.35
2024-03-13T01:16:03.434Z,297.30
2024-03-13T01:21:06.147Z,44.53
2024-03-13T01:26:11.197Z,225.20
2024-03-13T01:31:13.142Z,317.58
2024-03-13T01:36:17.034Z,300.80
2024-03-13T01:41:19.166Z,374.02
2024-03-13T01:46:21.646Z,351.23
2024-03-13T01:51:25.252Z,465.55
2024-03-13T01:56:28.661Z,108.15
2024-03-13T02:01:32.282Z,266.42
2024-03-13T02:06:34.334Z,29.45
2024-03-13T02:11:37.584Z,117.07
2024-03-13T02:16:40.334Z,47.22
2024-03-13T02:21:42.731Z,14.35
2024-03-13T02:26:45.420Z,69.47
2024-03-13T02:31:47.555Z,11.18
2024-03-13T02:36:50.236Z,12.60
2024-03-13T02:41:52.632Z,17.70
2024-03-13T02:46:54.796Z,12.77
2024-03-13T02:51:56.965Z,17.65
2024-03-13T02:57:00.421Z,21.00
2024-03-13T03:02:05.659Z,169.43
2024-03-13T03:07:09.635Z,125.38
2024-03-13T03:12:11.999Z,320.33
2024-03-13T03:17:14.652Z,302.13
2024-03-13T03:22:17.891Z,262.52
2024-03-13T03:27:20.523Z,273.67
2024-03-13T03:32:23.039Z,304.98
2024-03-13T03:37:25.864Z,206.45
2024-03-13T03:42:28.239Z,322.88
2024-03-13T03:47:30.316Z,190.48
2024-03-13T03:52:32.811Z,25.67
2024-03-13T03:57:36.475Z,19.98
2024-03-13T04:02:41.226Z,191.18
2024-03-13T04:07:43.487Z,31.25
2024-03-13T04:12:46.307Z,45.35
2024-03-13T04:17:49.313Z,26.10
2024-03-13T04:22:54.388Z,19.20
2024-03-13T04:27:58.136Z,23.23
2024-03-13T04:33:00.681Z,25.75
2024-03-13T04:38:02.676Z,25.38
2024-03-13T04:43:04.986Z,20.00
2024-03-13T04:48:07.525Z,134.45
2024-03-13T04:53:10.350Z,25.05
2024-03-13T04:58:12.659Z,16.33
2024-03-13T05:03:16.098Z,17.75
2024-03-13T05:08:18.742Z,20.35
2024-03-13T05:13:22.096Z,16.25
2024-03-13T05:18:24.451Z,15.15
2024-03-13T05:23:27.099Z,13.07
2024-03-13T05:28:29.568Z,11.45
2024-03-13T05:33:32.473Z,12.43
2024-03-13T05:38:34.530Z,16.30
2024-03-13T05:43:36.822Z,10.82
2024-03-13T05:48:39.803Z,12.88
2024-03-13T05:53:50.486Z,12.40
2024-03-13T05:58:52.907Z,14.23
2024-03-13T06:03:56.315Z,11.40
2024-03-13T06:09:01.463Z,15.65
2024-03-13T06:14:04.339Z,12.38
2024-03-13T06:19:09.920Z,10.38
2024-03-13T06:24:12.430Z,15.95
2024-03-13T06:29:14.958Z,11.95
2024-03-13T06:40:38.621Z,9.23
2024-03-13T06:45:40.836Z,9.02
2024-03-13T06:50:44.673Z,9.15
2024-03-13T06:55:47.116Z,10.25
2024-03-13T07:00:49.911Z,5.47
2024-03-13T07:05:52.264Z,8.23
2024-03-13T07:10:54.364Z,9.82
2024-03-13T07:15:56.799Z,10.38
2024-03-13T07:21:00.858Z,9.25
2024-03-13T07:26:03.363Z,6.88
2024-03-13T07:31:07.617Z,7.40
2024-03-13T07:36:10.228Z,8.77
2024-03-13T07:41:12.773Z,8.90
2024-03-13T07:46:15.468Z,10.57
2024-03-13T07:51:18.089Z,6.72
2024-03-13T07:56:20.154Z,6.55
2024-03-13T08:01:22.576Z,3.75
2024-03-13T09:10:31.552Z,3.13
2024-03-13T09:15:33.833Z,2.45
2024-03-13T09:20:36.508Z,4.53
2024-03-13T09:25:38.847Z,2.65
2024-03-13T09:30:42.157Z,4.18
2024-03-13T09:35:44.060Z,2.05
2024-03-13T09:40:47.190Z,2.92
2024-03-13T09:45:50.001Z,2.20
2024-03-13T09:50:54.758Z,2.97
2024-03-13T09:55:57.567Z,2.42
2024-03-13T10:01:01.494Z,1.80
2024-03-13T10:06:13.129Z,0.98
2024-03-13T10:11:15.726Z,2.15
2024-03-13T10:16:18.395Z,3.60
2024-03-13T10:21:21.235Z,1.83
2024-03-13T10:26:27.057Z,1.00
2024-03-13T10:31:29.877Z,1.65
2024-03-13T10:36:33.066Z,0.70
2024-03-13T10:41:35.265Z,1.75
2024-03-13T10:46:37.773Z,2.13
2024-03-13T10:51:40.139Z,1.20
2024-03-13T10:56:42.256Z,4.05
2024-03-13T11:01:46.064Z,2.83
2024-03-13T11:06:49.166Z,1.00
2024-03-13T11:11:54.816Z,2.63
2024-03-13T11:16:59.193Z,1.77
2024-03-13T11:22:04.902Z,2.25
2024-03-13T11:27:10.999Z,2.45
2024-03-13T11:32:15.230Z,1.25
2024-03-13T11:37:18.201Z,2.63
2024-03-13T11:42:20.619Z,4.18
2024-03-13T11:47:22.888Z,1.48
2024-03-13T11:52:24.846Z,1.73
2024-03-13T11:57:27.054Z,3.65
2024-03-13T12:02:29.426Z,1.58
2024-03-13T12:07:37.175Z,1.88
2024-03-13T12:12:40.098Z,1.88
2024-03-13T12:17:42.608Z,3.22
2024-03-13T12:22:44.995Z,2.00
2024-03-13T12:27:47.825Z,2.05
2024-03-13T12:32:53.434Z,1.33
2024-03-13T12:37:56.106Z,1.63
2024-03-13T12:42:59.137Z,2.85
2024-03-13T12:48:01.343Z,3.97
2024-03-13T12:53:03.834Z,2.83
2024-03-13T12:58:06.423Z,1.58
2024-03-13T13:03:09.748Z,2.28
2024-03-13T13:08:11.939Z,2.75
2024-03-13T13:13:15.405Z,4.03
2024-03-13T13:18:18.389Z,3.15
2024-03-13T13:23:20.357Z,1.95
2024-03-13T13:28:22.390Z,1.33
2024-03-13T13:33:28.644Z,1.02
2024-03-13T13:38:31.456Z,3.20
2024-03-13T13:43:34.287Z,2.67
2024-03-13T13:48:36.770Z,4.50
2024-03-13T13:53:39.739Z,2.75
2024-03-13T13:58:41.808Z,5.25
2024-03-13T14:03:44.503Z,3.45
2024-03-13T14:08:46.869Z,4.60
2024-03-13T14:13:49.759Z,3.85
2024-03-13T14:18:52.311Z,3.72
2024-03-13T14:23:54.834Z,7.28
2024-03-13T14:28:57.554Z,5.32
2024-03-13T14:34:00.134Z,5.78
2024-03-13T14:39:02.587Z,4.88
2024-03-13T14:44:05.090Z,8.57
2024-03-13T14:49:07.352Z,3.15
2024-03-13T14:54:09.956Z,4.45
2024-03-13T14:59:12.070Z,4.63
2024-03-13T15:04:14.378Z,2.65
2024-03-13T15:09:16.931Z,2.50
2024-03-13T15:14:19.150Z,1.95
2024-03-13T15:19:21.078Z,1.83
2024-03-13T15:24:23.295Z,3.08
2024-03-13T15:29:25.599Z,2.83
2024-03-13T15:34:28.415Z,2.38
2024-03-13T15:39:31.699Z,2.95
2024-03-13T15:44:33.985Z,3.00
2024-03-13T15:49:35.902Z,3.33
2024-03-13T15:54:40.107Z,1.67
2024-03-13T15:59:42.932Z,7.47
2024-03-13T16:04:45.130Z,3.92
2024-03-13T16:09:47.587Z,2.08
2024-03-13T16:14:49.650Z,4.65
2024-03-13T16:19:51.615Z,3.20
2024-03-13T16:24:54.353Z,3.85
2024-03-13T16:29:57.160Z,3.33
2024-03-13T16:34:59.236Z,2.85
2024-03-13T16:40:01.574Z,1.95
2024-03-13T16:45:04.055Z,5.00
2024-03-13T16:50:06.755Z,2.67
2024-03-13T16:55:09.174Z,3.90
2024-03-13T17:00:11.996Z,3.47
2024-03-13T17:05:15.920Z,2.05
2024-03-13T17:10:21.384Z,4.65
2024-03-13T17:15:27.420Z,3.50
2024-03-13T17:20:30.602Z,3.92
2024-03-13T17:25:32.857Z,6.43
2024-03-13T17:30:35.590Z,5.93
2024-03-13T17:35:38.151Z,4.05
2024-03-13T17:40:41.513Z,3.22
2024-03-13T17:45:43.970Z,5.40
2024-03-13T17:50:46.817Z,4.72
2024-03-13T17:55:49.779Z,5.55
2024-03-13T18:00:52.230Z,5.65
2024-03-13T18:05:54.974Z,4.10
2024-03-13T18:10:57.651Z,3.80
2024-03-13T18:16:00.137Z,2.95
2024-03-13T18:21:02.162Z,6.10
2024-03-13T18:26:06.649Z,6.30
2024-03-13T18:31:09.644Z,6.55
2024-03-13T18:36:14.376Z,4.78
2024-03-13T18:41:17.724Z,5.38
2024-03-13T18:46:20.388Z,6.72
2024-03-13T18:51:22.481Z,4.28
2024-03-13T18:56:24.495Z,4.95
2024-03-13T19:01:26.702Z,6.07
2024-03-13T19:06:30.437Z,5.32
2024-03-13T19:11:35.824Z,7.40
2024-03-13T19:16:38.479Z,5.75
2024-03-13T19:21:43.812Z,9.18
2024-03-13T19:26:46.980Z,7.32
2024-03-13T19:31:52.090Z,7.03
2024-03-13T19:36:55.165Z,5.15
2024-03-13T19:41:58.007Z,7.40
2024-03-13T19:47:00.396Z,8.00
2024-03-13T19:52:03.053Z,4.28
2024-03-13T19:57:05.587Z,6.13
2024-03-13T20:02:08.130Z,5.57
2024-03-13T20:07:10.680Z,6.03
2024-03-13T20:12:13.255Z,6.38
2024-03-13T20:17:15.625Z,6.03
2024-03-13T20:22:18.747Z,4.10
2024-03-13T20:27:21.577Z,6.45
2024-03-13T20:32:24.652Z,8.20
2024-03-13T20:37:27.803Z,9.77
2024-03-13T20:42:31.171Z,9.80
2024-03-13T20:47:33.490Z,7.78
2024-03-13T20:52:36.570Z,6.70
2024-03-13T20:57:40.706Z,7.15
2024-03-13T21:02:43.387Z,8.88
2024-03-13T21:07:49.154Z,4.82
2024-03-13T21:12:51.984Z,8.50
2024-03-13T21:17:54.195Z,4.13
2024-03-13T21:22:56.775Z,4.53
2024-03-13T21:27:58.851Z,4.10
2024-03-13T21:33:01.317Z,8.48
2024-03-13T21:38:03.687Z,5.90
2024-03-13T21:43:06.149Z,6.75
2024-03-13T21:48:08.867Z,6.35
2024-03-13T21:53:11.307Z,5.05
2024-03-13T21:58:14.051Z,7.03
2024-03-13T22:03:16.370Z,5.63
2024-03-13T22:08:18.934Z,4.85
2024-03-13T22:13:21.221Z,5.53
2024-03-13T22:18:23.664Z,5.43
2024-03-13T22:23:25.650Z,5.82
2024-03-13T22:28:27.656Z,5.05
2024-03-13T22:33:30.216Z,4.38
2024-03-13T22:38:32.339Z,3.55
2024-03-13T22:43:34.342Z,6.32
2024-03-13T22:48:36.979Z,6.40
2024-03-13T22:53:39.690Z,7.35
2024-03-13T22:58:41.919Z,5.57
2024-03-13T23:03:44.949Z,3.95
2024-03-13T23:08:46.927Z,8.45
2024-03-13T23:13:49.993Z,5.85
2024-03-13T23:18:52.046Z,5.97
2024-03-13T23:23:54.305Z,6.65
2024-03-13T23:28:57.003Z,9.60
2024-03-13T23:33:59.079Z,4.95
2024-03-13T23:39:01.854Z,5.05
2024-03-13T23:44:04.085Z,5.10
2024-03-13T23:49:06.129Z,3.75
2024-03-13T23:54:08.735Z,6.40
2024-03-13T23:59:10.803Z,4.50
